Terminal Aerodrome Forecast
Issued by NWS

Home | Current Version | Previous Version | Text Only | Print | Product List | Glossary On
Versions: 1 2 3 4 5 6 7 8 9 10 11 12 13 14
000
FTUS45 KCYS 031739
TAFRWL
TAF
KRWL 031739Z 0318/0418 VRB03KT P6SM SKC
     FM031900 29007KT P6SM SKC
     FM041600 24013G20KT P6SM SKC=

USA.gov is the U.S. government's official web portal to all federal, state and local government web resources and services.